Time,TemperatureF,DewpointF,PressureIn,WindDirection,WindDirectionDegrees,WindSpeedMPH,WindSpeedGustMPH,Humidity,HourlyPrecipIn,Conditions,Clouds,dailyrainin,SoftwareType,DateUTC
2013-07-26 00:21:00,73.3,71.0,29.95,North,9,0.0,-999.0,93,-99.99,,,0.00,weatherlink.com 1.10,2013-07-26 04:21:00,
2013-07-26 00:51:00,73.2,71.0,29.95,North,9,0.0,-999.0,94,-99.99,,,0.00,weatherlink.com 1.10,2013-07-26 04:51:00,
2013-07-26 01:06:00,73.2,71.0,29.95,North,9,0.0,-999.0,94,-99.99,,,0.00,weatherlink.com 1.10,2013-07-26 05:06:00,
2013-07-26 01:21:00,73.1,71.0,29.95,North,9,0.0,-999.0,94,-99.99,,,0.00,weatherlink.com 1.10,2013-07-26 05:21:00,
2013-07-26 01:36:00,73.2,71.0,29.95,North,9,0.0,-999.0,94,-99.99,,,0.00,weatherlink.com 1.10,2013-07-26 05:36:00,
2013-07-26 01:51:00,73.2,71.0,29.94,North,9,0.0,-999.0,94,-99.99,,,0.00,weatherlink.com 1.10,2013-07-26 05:51:00,
2013-07-26 02:06:00,73.3,72.0,29.94,North,9,0.0,-999.0,94,-99.99,,,0.00,weatherlink.com 1.10,2013-07-26 06:06:00,
2013-07-26 02:21:00,73.4,72.0,29.94,North,9,0.0,-999.0,94,-99.99,,,0.00,weatherlink.com 1.10,2013-07-26 06:21:00,
2013-07-26 02:36:00,73.3,72.0,29.94,North,9,0.0,-999.0,94,-99.99,,,0.00,weatherlink.com 1.10,2013-07-26 06:36:00,
2013-07-26 02:51:00,73.4,72.0,29.94,North,9,0.0,-999.0,94,-99.99,,,0.00,weatherlink.com 1.10,2013-07-26 06:51:00,
2013-07-26 03:06:00,73.5,72.0,29.94,North,9,0.0,-999.0,94,-99.99,,,0.00,weatherlink.com 1.10,2013-07-26 07:06:00,
2013-07-26 03:21:00,73.6,72.0,29.94,North,9,0.0,-999.0,95,-99.99,,,0.00,weatherlink.com 1.10,2013-07-26 07:21:00,
2013-07-26 03:36:00,73.6,72.0,29.94,North,9,0.0,-999.0,95,-99.99,,,0.00,weatherlink.com 1.10,2013-07-26 07:36:00,
2013-07-26 03:51:00,73.5,72.0,29.94,North,9,0.0,-999.0,95,-99.99,,,0.00,weatherlink.com 1.10,2013-07-26 07:51:00,
2013-07-26 04:06:00,73.4,72.0,29.94,North,9,0.0,-999.0,94,-99.99,,,0.00,weatherlink.com 1.10,2013-07-26 08:06:00,
2013-07-26 04:21:00,73.5,72.0,29.94,North,9,0.0,-999.0,94,-99.99,,,0.00,weatherlink.com 1.10,2013-07-26 08:21:00,
2013-07-26 04:36:00,73.5,72.0,29.95,North,9,0.0,-999.0,95,-99.99,,,0.00,weatherlink.com 1.10,2013-07-26 08:36:00,
2013-07-26 04:51:00,73.6,72.0,29.95,North,9,0.0,-999.0,95,-99.99,,,0.00,weatherlink.com 1.10,2013-07-26 08:51:00,
2013-07-26 05:06:00,73.7,72.0,29.95,North,9,0.0,-999.0,95,-99.99,,,0.00,weatherlink.com 1.10,2013-07-26 09:06:00,
2013-07-26 05:21:00,73.8,72.0,29.95,North,9,0.0,-999.0,95,-99.99,,,0.00,weatherlink.com 1.10,2013-07-26 09:21:00,
2013-07-26 05:51:00,73.8,72.0,29.96,North,9,0.0,-999.0,95,-99.99,,,0.00,weatherlink.com 1.10,2013-07-26 09:51:00,
2013-07-26 06:06:00,73.9,72.0,29.96,North,9,0.0,-999.0,95,-99.99,,,0.00,weatherlink.com 1.10,2013-07-26 10:06:00,
2013-07-26 06:21:00,73.8,72.0,29.97,North,9,0.0,-999.0,95,-99.99,,,0.00,weatherlink.com 1.10,2013-07-26 10:21:00,
2013-07-26 06:36:00,73.9,72.0,29.98,NNE,17,0.0,-999.0,95,-99.99,,,0.00,weatherlink.com 1.10,2013-07-26 10:36:00,
2013-07-26 06:51:00,73.8,72.0,29.98,NNE,17,0.0,-999.0,95,-99.99,,,0.00,weatherlink.com 1.10,2013-07-26 10:51:00,
2013-07-26 07:06:00,73.9,72.0,29.99,NNE,17,0.0,-999.0,95,-99.99,,,0.00,weatherlink.com 1.10,2013-07-26 11:06:00,
2013-07-26 07:21:00,74.1,73.0,29.99,NNE,17,0.0,-999.0,95,-99.99,,,0.00,weatherlink.com 1.10,2013-07-26 11:21:00,
2013-07-26 07:36:00,74.6,73.0,29.99,NNE,17,0.0,-999.0,95,-99.99,,,0.00,weatherlink.com 1.10,2013-07-26 11:36:00,
2013-07-26 08:06:00,76.2,75.0,29.99,NE,36,0.0,-999.0,96,-99.99,,,0.00,weatherlink.com 1.10,2013-07-26 12:06:00,
2013-07-26 08:21:00,77.0,76.0,30.00,SSE,157,0.0,-999.0,96,-99.99,,,0.00,weatherlink.com 1.10,2013-07-26 12:21:00,
2013-07-26 08:37:00,78.2,77.0,30.00,SSE,157,0.0,-999.0,96,-99.99,,,0.00,weatherlink.com 1.10,2013-07-26 12:37:00,
2013-07-26 08:52:00,78.8,77.0,30.01,SSW,209,0.0,-999.0,95,-99.99,,,0.00,weatherlink.com 1.10,2013-07-26 12:52:00,
2013-07-26 09:07:00,79.8,78.0,30.00,North,5,0.0,-999.0,94,-99.99,,,0.00,weatherlink.com 1.10,2013-07-26 13:07:00,
2013-07-26 09:22:00,80.9,78.0,30.01,East,96,0.0,-999.0,91,-99.99,,,0.00,weatherlink.com 1.10,2013-07-26 13:22:00,
2013-07-26 09:37:00,82.4,79.0,30.01,NE,55,0.0,-999.0,88,-99.99,,,0.00,weatherlink.com 1.10,2013-07-26 13:37:00,
2013-07-26 09:52:00,83.4,78.0,30.01,North,5,1.0,-999.0,84,-99.99,,,0.00,weatherlink.com 1.10,2013-07-26 13:52:00,
2013-07-26 10:07:00,82.6,78.0,30.01,SSE,158,0.0,-999.0,85,-99.99,,,0.00,weatherlink.com 1.10,2013-07-26 14:07:00,
2013-07-26 10:22:00,83.2,77.0,30.02,SE,133,0.0,-999.0,82,-99.99,,,0.00,weatherlink.com 1.10,2013-07-26 14:22:00,
2013-07-26 10:37:00,83.6,78.0,30.02,North,10,1.0,-999.0,82,-99.99,,,0.00,weatherlink.com 1.10,2013-07-26 14:37:00,
2013-07-26 10:52:00,84.2,78.0,30.02,NNE,24,1.0,-999.0,81,-99.99,,,0.00,weatherlink.com 1.10,2013-07-26 14:52:00,
2013-07-26 11:07:00,85.1,79.0,30.02,WSW,240,1.0,-999.0,82,-99.99,,,0.00,weatherlink.com 1.10,2013-07-26 15:07:00,
2013-07-26 11:22:00,85.1,78.0,30.03,North,5,0.0,-999.0,80,-99.99,,,0.00,weatherlink.com 1.10,2013-07-26 15:22:00,
2013-07-26 11:37:00,85.9,78.0,30.03,NE,46,0.0,-999.0,78,-99.99,,,0.00,weatherlink.com 1.10,2013-07-26 15:37:00,
2013-07-26 11:52:00,86.4,78.0,30.03,NE,45,1.0,-999.0,77,-99.99,,,0.00,weatherlink.com 1.10,2013-07-26 15:52:00,
2013-07-26 12:07:00,87.3,79.0,30.03,SSE,164,1.0,-999.0,75,-99.99,,,0.00,weatherlink.com 1.10,2013-07-26 16:07:00,
2013-07-26 12:22:00,87.0,80.0,30.04,SW,221,3.0,-999.0,79,-99.99,,,0.00,weatherlink.com 1.10,2013-07-26 16:22:00,
2013-07-26 12:37:00,87.5,79.0,30.03,NNE,22,2.0,-999.0,75,-99.99,,,0.00,weatherlink.com 1.10,2013-07-26 16:37:00,
2013-07-26 12:52:00,86.7,78.0,30.02,ESE,109,0.0,-999.0,75,-99.99,,,0.00,weatherlink.com 1.10,2013-07-26 16:52:00,
2013-07-26 13:07:00,87.1,78.0,30.02,West,269,3.0,-999.0,74,-99.99,,,0.00,weatherlink.com 1.10,2013-07-26 17:07:00,
2013-07-26 13:22:00,87.3,79.0,30.02,ENE,65,0.0,-999.0,75,-99.99,,,0.00,weatherlink.com 1.10,2013-07-26 17:22:00,
2013-07-26 13:37:00,86.8,79.0,30.02,North,5,0.0,-999.0,77,-99.99,,,0.00,weatherlink.com 1.10,2013-07-26 17:37:00,
2013-07-26 13:52:00,87.6,78.0,30.02,NNW,339,0.0,-999.0,74,-99.99,,,0.00,weatherlink.com 1.10,2013-07-26 17:52:00,
2013-07-26 14:07:00,87.2,78.0,30.02,North,355,4.0,-999.0,75,-99.99,,,0.00,weatherlink.com 1.10,2013-07-26 18:07:00,
2013-07-26 14:22:00,87.3,78.0,30.00,NE,35,0.0,-999.0,74,-99.99,,,0.00,weatherlink.com 1.10,2013-07-26 18:22:00,
2013-07-26 14:37:00,86.4,78.0,30.01,WNW,297,1.0,-999.0,76,-99.99,,,0.00,weatherlink.com 1.10,2013-07-26 18:37:00,
2013-07-26 14:52:00,85.1,78.0,30.01,NNW,346,0.0,-999.0,78,-99.99,,,0.00,weatherlink.com 1.10,2013-07-26 18:52:00,
2013-07-26 15:07:00,84.7,78.0,30.01,NNE,18,0.0,-999.0,79,-99.99,,,0.00,weatherlink.com 1.10,2013-07-26 19:07:00,
2013-07-26 15:22:00,84.7,78.0,30.00,North,11,0.0,-999.0,79,-99.99,,,0.00,weatherlink.com 1.10,2013-07-26 19:22:00,
2013-07-26 15:37:00,84.8,78.0,30.00,East,101,1.0,-999.0,80,-99.99,,,0.00,weatherlink.com 1.10,2013-07-26 19:37:00,
2013-07-26 15:52:00,84.8,78.0,30.00,ESE,110,0.0,-999.0,79,-99.99,,,0.00,weatherlink.com 1.10,2013-07-26 19:52:00,
2013-07-26 16:07:00,84.6,78.0,30.00,East,96,0.0,-999.0,80,-99.99,,,0.00,weatherlink.com 1.10,2013-07-26 20:07:00,
2013-07-26 16:22:00,84.6,78.0,29.98,North,355,3.0,-999.0,80,-99.99,,,0.00,weatherlink.com 1.10,2013-07-26 20:22:00,
2013-07-26 16:37:00,85.2,78.0,29.98,East,94,2.0,-999.0,78,-99.99,,,0.00,weatherlink.com 1.10,2013-07-26 20:37:00,
2013-07-26 16:52:00,84.7,77.0,29.98,SW,235,0.0,-999.0,78,-99.99,,,0.00,weatherlink.com 1.10,2013-07-26 20:52:00,
2013-07-26 17:07:00,85.1,78.0,29.99,South,187,1.0,-999.0,79,-99.99,,,0.00,weatherlink.com 1.10,2013-07-26 21:07:00,
2013-07-26 17:22:00,84.8,77.0,29.99,ENE,63,1.0,-999.0,78,-99.99,,,0.00,weatherlink.com 1.10,2013-07-26 21:22:00,
2013-07-26 17:37:00,84.7,77.0,29.98,ENE,74,0.0,-999.0,78,-99.99,,,0.00,weatherlink.com 1.10,2013-07-26 21:37:00,
2013-07-26 17:52:00,84.4,77.0,29.99,ENE,76,1.0,-999.0,78,-99.99,,,0.00,weatherlink.com 1.10,2013-07-26 21:52:00,
2013-07-26 18:07:00,84.1,77.0,29.98,NE,41,0.0,-999.0,79,-99.99,,,0.00,weatherlink.com 1.10,2013-07-26 22:07:00,
2013-07-26 18:22:00,83.6,77.0,29.99,ESE,107,0.0,-999.0,80,-99.99,,,0.00,weatherlink.com 1.10,2013-07-26 22:22:00,
2013-07-26 18:37:00,83.6,77.0,29.99,ESE,121,1.0,-999.0,80,-99.99,,,0.00,weatherlink.com 1.10,2013-07-26 22:37:00,
2013-07-26 18:52:00,83.3,77.0,29.99,North,355,0.0,-999.0,81,-99.99,,,0.00,weatherlink.com 1.10,2013-07-26 22:52:00,
2013-07-26 19:07:00,82.8,76.0,29.99,NW,311,0.0,-999.0,81,-99.99,,,0.00,weatherlink.com 1.10,2013-07-26 23:07:00,
2013-07-26 19:22:00,82.5,77.0,29.99,South,188,0.0,-999.0,82,-99.99,,,0.00,weatherlink.com 1.10,2013-07-26 23:22:00,
2013-07-26 19:37:00,82.1,77.0,29.99,ENE,62,0.0,-999.0,83,-99.99,,,0.00,weatherlink.com 1.10,2013-07-26 23:37:00,
2013-07-26 19:52:00,81.6,76.0,29.99,NE,55,0.0,-999.0,84,-99.99,,,0.00,weatherlink.com 1.10,2013-07-26 23:52:00,
2013-07-26 20:07:00,81.2,76.0,29.99,SSE,163,0.0,-999.0,84,-99.99,,,0.00,weatherlink.com 1.10,2013-07-27 00:07:00,
2013-07-26 20:22:00,80.7,76.0,30.00,SSE,162,0.0,-999.0,85,-99.99,,,0.00,weatherlink.com 1.10,2013-07-27 00:22:00,
2013-07-26 20:37:00,80.2,76.0,29.99,SSE,159,0.0,-999.0,86,-99.99,,,0.00,weatherlink.com 1.10,2013-07-27 00:37:00,
2013-07-26 20:52:00,79.7,76.0,29.99,WSW,241,0.0,-999.0,87,-99.99,,,0.00,weatherlink.com 1.10,2013-07-27 00:52:00,
2013-07-26 21:07:00,79.4,76.0,29.99,NW,312,0.0,-999.0,88,-99.99,,,0.00,weatherlink.com 1.10,2013-07-27 01:07:00,
2013-07-26 21:22:00,79.1,75.0,29.99,ENE,57,0.0,-999.0,88,-99.99,,,0.00,weatherlink.com 1.10,2013-07-27 01:22:00,
2013-07-26 21:37:00,78.9,76.0,29.99,ENE,63,0.0,-999.0,89,-99.99,,,0.00,weatherlink.com 1.10,2013-07-27 01:37:00,
2013-07-26 21:52:00,78.7,75.0,30.00,ENE,60,0.0,-999.0,89,-99.99,,,0.00,weatherlink.com 1.10,2013-07-27 01:52:00,
2013-07-26 22:08:00,78.7,75.0,30.00,SSW,194,0.0,-999.0,89,-99.99,,,0.00,weatherlink.com 1.10,2013-07-27 02:08:00,
2013-07-26 22:23:00,78.7,75.0,30.00,SSW,194,0.0,-999.0,89,-99.99,,,0.00,weatherlink.com 1.10,2013-07-27 02:23:00,
2013-07-26 22:38:00,78.6,75.0,30.01,SSW,194,0.0,-999.0,89,-99.99,,,0.00,weatherlink.com 1.10,2013-07-27 02:38:00,
2013-07-26 22:53:00,78.5,75.0,30.01,North,355,0.0,-999.0,90,-99.99,,,0.00,weatherlink.com 1.10,2013-07-27 02:53:00,
2013-07-26 23:08:00,78.5,75.0,30.01,NW,319,0.0,-999.0,90,-99.99,,,0.00,weatherlink.com 1.10,2013-07-27 03:08:00,
2013-07-26 23:23:00,78.5,75.0,30.02,East,94,0.0,-999.0,90,-99.99,,,0.00,weatherlink.com 1.10,2013-07-27 03:23:00,
2013-07-26 23:38:00,78.4,75.0,30.01,NE,50,0.0,-999.0,90,-99.99,,,0.00,weatherlink.com 1.10,2013-07-27 03:38:00,
2013-07-26 23:53:00,78.3,75.0,30.01,ENE,75,0.0,-999.0,90,-99.99,,,0.00,weatherlink.com 1.10,2013-07-27 03:53:00,